createdAt,value
2023-04-29T00:00:57.059Z,101429.78
2023-04-29T00:03:29.313Z,101429.91
2023-04-29T00:05:59.948Z,101424.94
2023-04-29T00:08:28.988Z,101368.97
2023-04-29T00:10:57.836Z,101442.69
2023-04-29T00:13:26.742Z,101444.53
2023-04-29T00:15:55.446Z,101444.84
2023-04-29T00:18:24.166Z,101447.88
2023-04-29T00:20:52.953Z,101448.59
2023-04-29T00:23:23.066Z,101458.34
2023-04-29T00:25:53.559Z,101448.88
2023-04-29T00:28:27.999Z,101460.47
2023-04-29T00:30:57.227Z,101455.78
2023-04-29T00:33:26.064Z,101467.56
2023-04-29T00:35:57.416Z,101472.28
2023-04-29T00:38:28.224Z,101449.56
2023-04-29T00:40:57.450Z,101468.66
2023-04-29T00:43:26.333Z,101472.44
2023-04-29T00:45:55.462Z,101469.34
2023-04-29T00:48:24.243Z,101476.88
2023-04-29T00:50:53.150Z,101472.78
2023-04-29T00:53:23.162Z,101466.81
2023-04-29T00:55:53.973Z,101474.34
2023-04-29T00:58:24.092Z,101476.19
2023-04-29T01:00:57.998Z,101472.19
2023-04-29T01:03:27.104Z,101476.25
2023-04-29T01:06:11.908Z,101479.22
2023-04-29T01:08:53.583Z,101491.44
2023-04-29T01:11:33.704Z,101482.06
2023-04-29T01:14:04.436Z,101480.94
2023-04-29T01:16:39.975Z,101486.97
2023-04-29T01:19:18.971Z,101491.28
2023-04-29T01:21:49.885Z,101491.53
2023-04-29T01:24:22.194Z,101495.50
2023-04-29T01:26:57.838Z,101494.56
2023-04-29T01:29:46.821Z,101482.75
2023-04-29T01:32:20.222Z,101500.47
2023-04-29T01:34:50.858Z,101497.69
2023-04-29T01:37:24.090Z,101499.09
2023-04-29T01:39:59.539Z,101506.22
2023-04-29T01:42:37.739Z,101513.94
2023-04-29T01:45:17.162Z,101507.09
2023-04-29T01:47:47.550Z,101496.28
2023-04-29T01:50:17.180Z,101506.22
2023-04-29T01:52:46.107Z,101509.56
2023-04-29T01:55:16.406Z,101508.97
2023-04-29T01:58:05.543Z,101510.97
2023-04-29T02:00:50.575Z,101510.03
2023-04-29T02:03:25.289Z,101514.34
2023-04-29T02:05:57.914Z,101512.03
2023-04-29T02:08:26.856Z,101511.75
2023-04-29T02:10:59.958Z,101506.09
2023-04-29T02:13:36.084Z,101519.50
2023-04-29T02:16:10.466Z,101518.50
2023-04-29T02:18:44.302Z,101528.31
2023-04-29T02:21:13.420Z,101528.31
2023-04-29T02:23:42.179Z,101535.13
2023-04-29T02:26:14.071Z,101539.38
2023-04-29T02:28:42.838Z,101539.69
2023-04-29T02:31:14.126Z,101538.94
2023-04-29T02:33:46.786Z,101545.28
2023-04-29T02:36:15.888Z,101552.41
2023-04-29T02:38:45.642Z,101551.25
2023-04-29T02:41:19.351Z,101554.63
2023-04-29T02:43:50.162Z,101556.63
2023-04-29T02:46:21.018Z,101564.34
2023-04-29T02:48:49.909Z,101566.06
2023-04-29T02:51:18.840Z,101568.59
2023-04-29T02:53:47.571Z,101568.66
2023-04-29T02:56:20.104Z,101573.75
2023-04-29T02:58:48.879Z,101578.72
2023-04-29T03:01:17.655Z,101577.97
2023-04-29T03:03:46.778Z,101576.84
2023-04-29T03:06:16.027Z,101521.75
2023-04-29T03:08:46.776Z,101584.72
2023-04-29T03:11:15.889Z,101586.53
2023-04-29T03:13:48.535Z,101591.72
2023-04-29T03:16:17.977Z,101595.94
2023-04-29T03:18:46.984Z,101594.03
2023-04-29T03:21:15.710Z,101516.59
2023-04-29T03:23:47.177Z,101595.94
2023-04-29T03:26:25.802Z,101585.69
2023-04-29T03:28:56.214Z,101589.78
2023-04-29T03:31:25.778Z,101592.41
2023-04-29T03:33:54.531Z,101594.13
2023-04-29T03:36:24.552Z,101512.75
2023-04-29T03:39:02.884Z,101599.31
2023-04-29T03:41:31.966Z,101600.66
2023-04-29T03:44:02.146Z,101594.09
2023-04-29T03:46:31.693Z,101602.91
2023-04-29T03:49:00.403Z,101606.66
2023-04-29T03:51:29.758Z,101592.06
2023-04-29T03:54:10.368Z,101597.97
2023-04-29T03:56:39.310Z,101606.47
2023-04-29T03:59:09.757Z,101610.00
2023-04-29T04:01:40.473Z,101602.81
2023-04-29T04:04:09.529Z,101614.06
2023-04-29T04:06:44.233Z,101618.47
2023-04-29T04:09:14.161Z,101608.81
2023-04-29T04:11:51.979Z,101616.53
2023-04-29T04:14:22.578Z,101622.25
2023-04-29T04:16:52.316Z,101625.56
2023-04-29T04:19:21.081Z,101635.03
2023-04-29T04:21:50.083Z,101630.66
2023-04-29T04:24:19.980Z,101636.75
2023-04-29T04:26:49.516Z,101628.97
2023-04-29T04:29:27.274Z,101639.53
2023-04-29T04:31:59.963Z,101649.81
2023-04-29T04:34:29.344Z,101650.59
2023-04-29T04:37:00.715Z,101653.19
2023-04-29T04:39:29.892Z,101656.28
2023-04-29T04:41:59.797Z,101659.94
2023-04-29T04:44:34.392Z,101660.81
2023-04-29T04:47:07.928Z,101667.78
2023-04-29T04:49:52.910Z,101672.03
2023-04-29T04:52:24.670Z,101673.84
2023-04-29T04:55:05.213Z,101682.53
2023-04-29T04:57:39.279Z,101683.16
2023-04-29T05:00:11.196Z,101684.16
2023-04-29T05:02:40.302Z,101679.06
2023-04-29T05:05:09.794Z,101695.25
2023-04-29T05:07:40.869Z,101690.41
2023-04-29T05:10:12.991Z,101696.16
2023-04-29T05:12:48.351Z,101700.41
2023-04-29T05:15:19.212Z,101706.28
2023-04-29T05:17:50.289Z,101700.22
2023-04-29T05:20:20.494Z,101694.09
2023-04-29T05:22:49.252Z,101704.25
2023-04-29T05:25:19.300Z,101697.41
2023-04-29T05:27:48.952Z,101709.09
2023-04-29T05:30:22.326Z,101701.44
2023-04-29T05:32:51.516Z,101713.41
2023-04-29T05:35:22.085Z,101725.81
2023-04-29T05:37:51.708Z,101724.09
2023-04-29T05:40:31.209Z,101731.75
2023-04-29T05:43:29.757Z,101728.16
2023-04-29T05:46:01.604Z,101739.50
2023-04-29T05:48:31.009Z,101726.00
2023-04-29T05:51:00.267Z,101736.22
2023-04-29T05:53:29.591Z,101727.66
2023-04-29T05:56:04.942Z,101754.16
2023-04-29T05:58:34.146Z,101734.94
2023-04-29T06:01:04.431Z,101749.97
2023-04-29T06:03:34.784Z,101752.94
2023-04-29T06:06:25.792Z,101753.34
2023-04-29T06:09:44.050Z,101760.25
2023-04-29T06:12:13.277Z,101760.59
2023-04-29T06:14:44.035Z,101773.88
2023-04-29T06:17:15.126Z,101772.19
2023-04-29T06:19:47.950Z,101754.25
2023-04-29T06:22:16.684Z,101781.03
2023-04-29T06:24:50.903Z,101781.44
2023-04-29T06:27:28.266Z,101785.16
2023-04-29T06:29:58.019Z,101783.22
2023-04-29T06:32:29.002Z,101799.66
2023-04-29T06:34:58.004Z,101798.13
2023-04-29T06:37:43.137Z,101801.72
2023-04-29T06:40:30.217Z,101802.81
2023-04-29T06:43:20.355Z,101741.97
2023-04-29T06:46:13.130Z,101800.28
2023-04-29T06:49:02.926Z,101795.63
2023-04-29T06:51:33.896Z,101791.19
2023-04-29T06:54:02.647Z,101807.63
2023-04-29T06:56:31.572Z,101814.63
2023-04-29T06:59:00.393Z,101823.50
2023-04-29T07:01:33.487Z,101823.22
2023-04-29T07:04:03.757Z,101811.69
2023-04-29T07:06:32.619Z,101832.16
2023-04-29T07:09:07.452Z,101840.41
2023-04-29T07:11:40.786Z,101841.63
2023-04-29T07:14:09.811Z,101841.78
2023-04-29T07:16:40.329Z,101843.09
2023-04-29T07:19:13.710Z,101842.44
2023-04-29T07:21:42.739Z,101847.81
2023-04-29T07:24:11.520Z,101847.44
2023-04-29T07:26:44.505Z,101845.47
2023-04-29T07:29:13.389Z,101850.25
2023-04-29T07:31:42.377Z,101820.25
2023-04-29T07:34:11.173Z,101857.91
2023-04-29T07:36:44.337Z,101858.81
2023-04-29T07:39:16.464Z,101860.06
2023-04-29T07:41:52.327Z,101856.53
2023-04-29T07:44:23.286Z,101862.53
2023-04-29T07:46:54.914Z,101869.72
2023-04-29T07:49:23.793Z,101874.94
2023-04-29T07:51:54.657Z,101868.25
2023-04-29T07:54:27.953Z,101878.88
2023-04-29T07:56:59.128Z,101881.00
2023-04-29T07:59:28.268Z,101881.56
2023-04-29T08:02:00.278Z,101869.66
2023-04-29T08:04:35.564Z,101875.56
2023-04-29T08:07:16.756Z,101878.72
2023-04-29T08:09:51.732Z,101886.03
2023-04-29T08:12:20.491Z,101880.50
2023-04-29T08:14:51.969Z,101883.88
2023-04-29T08:17:20.913Z,101877.03
2023-04-29T08:19:50.810Z,101884.53
2023-04-29T08:22:21.169Z,101882.34
2023-04-29T08:24:50.080Z,101877.34
2023-04-29T08:27:18.852Z,101880.03
2023-04-29T08:29:59.069Z,101885.78
2023-04-29T08:32:32.914Z,101882.88
2023-04-29T08:35:14.907Z,101888.06
2023-04-29T08:37:47.782Z,101825.81
2023-04-29T08:40:24.960Z,101870.78
2023-04-29T08:42:57.093Z,101881.38
2023-04-29T08:45:29.891Z,101886.44
2023-04-29T08:48:02.487Z,101892.13
2023-04-29T08:50:31.717Z,101890.91
2023-04-29T08:53:01.914Z,101900.59
2023-04-29T08:55:31.113Z,101896.22
2023-04-29T08:58:03.213Z,101900.88
2023-04-29T09:00:34.022Z,101907.31
2023-04-29T09:03:13.340Z,101906.91
2023-04-29T09:05:46.988Z,101917.72
2023-04-29T09:08:18.142Z,101914.50
2023-04-29T09:10:47.756Z,101931.81
2023-04-29T09:13:25.925Z,101910.72
2023-04-29T09:15:56.293Z,101911.88
2023-04-29T09:18:50.571Z,101906.97
2023-04-29T09:21:22.561Z,101918.00
2023-04-29T09:23:55.065Z,101919.09
2023-04-29T09:26:27.437Z,101917.38
2023-04-29T09:29:09.368Z,101913.69
2023-04-29T09:31:40.361Z,101922.91
2023-04-29T09:34:12.100Z,101861.38
2023-04-29T09:36:45.145Z,101922.31
2023-04-29T09:39:17.669Z,101930.28
2023-04-29T09:42:02.747Z,101931.50
2023-04-29T09:44:35.937Z,101938.31
2023-04-29T09:47:06.790Z,101937.06
2023-04-29T09:49:41.158Z,101934.91
2023-04-29T09:52:13.034Z,101920.13
2023-04-29T09:54:44.993Z,101929.44
2023-04-29T10:19:01.482Z,101938.78
2023-04-29T10:21:40.047Z,101940.16
2023-04-29T10:24:14.983Z,101935.91
2023-04-29T10:26:53.083Z,101926.53
2023-04-29T10:29:23.588Z,101941.84
2023-04-29T10:31:53.736Z,101935.91
2023-04-29T10:34:25.585Z,101885.53
2023-04-29T10:36:54.512Z,101937.06
2023-04-29T10:39:31.784Z,101892.38
2023-04-29T10:42:01.000Z,101933.63
2023-04-29T10:44:29.747Z,101923.66
2023-04-29T10:47:21.222Z,101936.72
2023-04-29T10:50:16.017Z,101932.94
2023-04-29T10:52:57.923Z,101940.63
2023-04-29T10:55:26.813Z,101940.88
2023-04-29T10:57:57.062Z,101929.47
2023-04-29T11:00:29.387Z,101939.31
2023-04-29T11:02:59.458Z,101933.59
2023-04-29T11:05:34.707Z,101933.13
2023-04-29T11:08:13.360Z,101943.28
2023-04-29T11:10:44.872Z,101937.50
2023-04-29T11:13:22.761Z,101943.88
2023-04-29T11:15:52.828Z,101937.00
2023-04-29T11:18:21.593Z,101938.91
2023-04-29T11:21:24.886Z,101939.78
2023-04-29T11:23:53.643Z,101949.78
2023-04-29T11:26:22.713Z,101950.31
2023-04-29T11:28:53.129Z,101937.44
2023-04-29T11:31:22.056Z,101944.16
2023-04-29T11:33:51.100Z,101950.44
2023-04-29T11:36:20.019Z,101945.56
2023-04-29T11:38:50.264Z,101944.28
2023-04-29T11:41:19.057Z,101942.78
2023-04-29T11:43:48.128Z,101933.25
2023-04-29T11:46:17.172Z,101950.81
2023-04-29T11:48:50.154Z,101897.97
2023-04-29T11:51:20.926Z,101946.47
2023-04-29T11:53:52.617Z,101949.00
2023-04-29T11:56:24.336Z,101951.28
2023-04-29T11:58:56.735Z,101943.56
2023-04-29T12:01:26.838Z,101938.94
2023-04-29T12:04:01.070Z,101949.00
2023-04-29T12:06:31.785Z,101951.88
2023-04-29T12:09:04.546Z,101941.94
2023-04-29T12:11:33.471Z,101943.50
2023-04-29T12:14:06.113Z,101949.16
2023-04-29T12:16:37.760Z,101941.44
2023-04-29T12:19:06.882Z,101930.16
2023-04-29T12:21:38.678Z,101953.44
2023-04-29T12:24:13.913Z,101953.09
2023-04-29T12:26:42.911Z,101948.66
2023-04-29T12:29:11.934Z,101949.56
2023-04-29T12:31:41.756Z,101948.44
2023-04-29T12:34:13.074Z,101952.88
2023-04-29T12:36:43.333Z,101946.66
2023-04-29T12:39:13.560Z,101950.13
2023-04-29T12:41:43.142Z,101952.50
2023-04-29T12:44:12.296Z,101967.00
2023-04-29T12:46:42.377Z,101959.94
2023-04-29T12:49:13.716Z,101959.56
2023-04-29T12:51:42.488Z,101956.13
2023-04-29T12:54:11.283Z,101964.41
2023-04-29T12:56:43.183Z,101956.69
2023-04-29T12:59:17.267Z,101958.06
2023-04-29T13:01:46.498Z,101963.56
2023-04-29T13:04:15.644Z,101968.84
2023-04-29T13:06:44.494Z,101971.06
2023-04-29T13:09:18.368Z,101972.22
2023-04-29T13:11:49.179Z,101973.84
2023-04-29T13:14:18.771Z,101972.00
2023-04-29T13:18:19.749Z,101968.41
2023-04-29T13:20:57.169Z,101975.66
2023-04-29T13:23:28.453Z,101926.19
2023-04-29T13:25:57.329Z,101975.47
2023-04-29T13:28:30.158Z,101974.06
2023-04-29T13:30:59.140Z,101977.25
2023-04-29T13:33:30.543Z,101973.41
2023-04-29T13:35:59.429Z,101972.97
2023-04-29T13:38:30.647Z,101912.09
2023-04-29T13:40:59.761Z,101987.34
2023-04-29T13:43:37.876Z,101965.34
2023-04-29T13:46:09.342Z,101953.31
2023-04-29T13:57:07.595Z,101978.56
2023-04-29T14:02:21.520Z,101982.84
2023-04-29T14:04:26.022Z,101980.72
2023-04-29T14:06:57.776Z,101985.91
2023-04-29T14:09:26.949Z,101991.28
2023-04-29T14:11:56.150Z,101982.00
2023-04-29T14:14:26.292Z,101966.06
2023-04-29T14:16:55.141Z,101995.06
2023-04-29T14:19:24.180Z,102000.91
2023-04-29T14:21:52.952Z,101915.97
2023-04-29T14:24:22.474Z,101998.72
2023-04-29T14:26:52.383Z,101997.50
2023-04-29T14:29:21.685Z,101991.91
2023-04-29T14:31:51.940Z,102001.84
2023-04-29T14:34:21.230Z,102007.72
2023-04-29T14:36:52.314Z,101998.97
2023-04-29T14:39:21.155Z,101992.53
2023-04-29T14:41:52.439Z,101999.66
2023-04-29T14:44:21.141Z,102000.59
2023-04-29T14:46:51.242Z,102003.13
2023-04-29T14:49:19.962Z,101997.69
2023-04-29T14:51:49.223Z,102011.13
2023-04-29T14:54:20.911Z,102014.88
2023-04-29T14:56:50.062Z,102010.66
2023-04-29T14:59:18.805Z,102005.81
2023-04-29T15:01:51.161Z,102019.31
2023-04-29T15:04:22.819Z,102013.81
2023-04-29T15:06:52.715Z,102026.53
2023-04-29T15:09:22.070Z,102023.44
2023-04-29T15:11:50.838Z,102019.38
2023-04-29T15:14:19.566Z,102023.06
2023-04-29T15:16:49.058Z,102026.97
2023-04-29T15:19:19.377Z,102031.34
2023-04-29T15:21:48.164Z,102018.91
2023-04-29T15:24:16.833Z,102031.63
2023-04-29T15:26:46.655Z,102010.53
2023-04-29T15:29:15.629Z,102034.16
2023-04-29T15:31:44.889Z,102038.78
2023-04-29T15:34:13.761Z,102029.22
2023-04-29T15:36:44.098Z,102035.66
2023-04-29T15:39:13.396Z,102037.84
2023-04-29T15:41:42.524Z,102033.53
2023-04-29T15:44:11.784Z,102030.72
2023-04-29T15:46:41.134Z,102032.66
2023-04-29T15:49:10.806Z,102033.59
2023-04-29T15:51:39.684Z,102036.50
2023-04-29T15:54:10.298Z,102045.41
2023-04-29T15:56:39.793Z,102015.47
2023-04-29T15:59:08.654Z,102044.16
2023-04-29T16:01:39.895Z,101969.19
2023-04-29T16:04:09.150Z,102052.56
2023-04-29T16:06:41.850Z,102051.91
2023-04-29T16:09:12.766Z,102058.25
2023-04-29T16:11:42.245Z,102056.53
2023-04-29T16:14:14.089Z,102058.38
2023-04-29T16:16:46.584Z,102043.19
2023-04-29T16:19:17.214Z,102050.78
2023-04-29T16:21:46.555Z,102071.94
2023-04-29T16:24:17.175Z,102044.63
2023-04-29T16:26:48.083Z,102067.72
2023-04-29T16:29:26.353Z,102068.09
2023-04-29T16:31:55.709Z,102067.28
2023-04-29T16:34:24.442Z,102067.81
2023-04-29T16:36:55.940Z,102062.56
2023-04-29T16:39:26.083Z,102071.97
2023-04-29T16:41:54.770Z,102057.19
2023-04-29T16:48:51.423Z,102051.84
2023-04-29T16:51:20.580Z,102045.38
2023-04-29T16:53:49.387Z,102068.69
2023-04-29T16:56:19.904Z,102071.25
2023-04-29T16:58:49.009Z,102070.91
2023-04-29T17:01:19.751Z,102070.25
2023-04-29T17:03:49.241Z,102073.16
2023-04-29T17:06:20.456Z,102063.94
2023-04-29T17:08:51.448Z,102078.06
2023-04-29T17:11:25.606Z,102071.16
2023-04-29T17:13:54.487Z,102068.59
2023-04-29T17:16:23.723Z,102072.75
2023-04-29T17:18:52.924Z,102077.66
2023-04-29T17:21:25.855Z,102075.47
2023-04-29T17:23:54.926Z,102079.78
2023-04-29T17:26:25.089Z,102085.38
2023-04-29T17:28:54.070Z,102078.97
2023-04-29T17:31:25.613Z,102080.16
2023-04-29T17:34:05.223Z,102075.84
2023-04-29T17:36:36.884Z,102085.41
2023-04-29T17:39:05.827Z,102088.91
2023-04-29T17:41:38.935Z,102087.91
2023-04-29T17:44:08.393Z,102090.06
2023-04-29T17:46:37.287Z,102092.41
2023-04-29T17:49:06.254Z,102086.31
2023-04-29T17:51:37.054Z,102084.75
2023-04-29T17:54:06.065Z,102085.78
2023-04-29T17:56:38.579Z,102085.94
2023-04-29T17:59:08.238Z,102077.53
2023-04-29T18:01:37.376Z,102097.06
2023-04-29T18:04:06.670Z,102109.00
2023-04-29T18:06:35.669Z,102091.25
2023-04-29T18:09:04.753Z,102101.50
2023-04-29T18:11:33.601Z,102105.69
2023-04-29T18:14:06.020Z,102039.22
2023-04-29T18:16:34.944Z,102113.59
2023-04-29T18:19:03.841Z,102113.28
2023-04-29T18:21:33.050Z,102113.59
2023-04-29T18:24:02.049Z,102109.59
2023-04-29T18:26:30.932Z,102117.56
2023-04-29T18:28:59.732Z,102120.31
2023-04-29T18:31:33.001Z,102108.16
2023-04-29T18:34:01.947Z,102102.84
2023-04-29T18:36:32.184Z,102117.69
2023-04-29T18:39:01.024Z,102123.03
2023-04-29T18:41:30.270Z,102131.00
2023-04-29T18:43:59.008Z,102125.53
2023-04-29T18:46:30.470Z,102130.72
2023-04-29T18:49:00.756Z,102128.25
2023-04-29T18:51:29.506Z,102132.59
2023-04-29T18:53:58.321Z,102119.19
2023-04-29T18:56:27.117Z,102112.47
2023-04-29T18:58:56.034Z,102136.28
2023-04-29T19:01:24.882Z,102142.56
2023-04-29T19:03:53.696Z,102138.38
2023-04-29T19:06:25.430Z,102145.34
2023-04-29T19:13:51.361Z,102158.88
2023-04-29T19:16:20.584Z,102153.50
2023-04-29T19:18:51.919Z,102138.25
2023-04-29T19:21:21.528Z,102138.59
2023-04-29T19:23:53.065Z,102160.75
2023-04-29T19:26:23.181Z,102162.84
2023-04-29T19:28:51.947Z,102165.88
2023-04-29T19:31:20.726Z,102169.38
2023-04-29T19:33:52.049Z,102171.69
2023-04-29T19:36:20.967Z,102176.81
2023-04-29T19:38:51.382Z,102175.09
2023-04-29T19:41:23.346Z,102178.25
2023-04-29T19:43:53.723Z,102179.31
2023-04-29T19:46:22.577Z,102181.28
2023-04-29T19:48:51.423Z,102179.63
2023-04-29T19:51:20.980Z,102181.75
2023-04-29T19:53:52.524Z,102126.50
2023-04-29T19:56:21.369Z,102189.75
2023-04-29T19:58:53.051Z,102186.88
2023-04-29T20:01:22.039Z,102189.47
2023-04-29T20:03:50.882Z,102188.59
2023-04-29T20:06:20.168Z,102131.66
2023-04-29T20:08:52.715Z,102193.47
2023-04-29T20:11:22.019Z,102200.19
2023-04-29T20:13:50.854Z,102198.38
2023-04-29T20:16:19.907Z,102210.50
2023-04-29T20:18:48.859Z,102191.63
2023-04-29T20:21:17.579Z,102199.22
2023-04-29T20:23:46.635Z,102208.56
2023-04-29T20:26:17.921Z,102206.81
2023-04-29T20:28:48.499Z,102199.91
2023-04-29T20:31:19.711Z,102206.28
2023-04-29T20:33:48.545Z,102207.13
2023-04-29T20:36:20.069Z,102212.59
2023-04-29T20:38:49.219Z,102216.22
2023-04-29T20:41:19.452Z,102211.91
2023-04-29T20:43:48.372Z,102215.41
2023-04-29T20:46:17.865Z,102217.22
2023-04-29T20:48:47.290Z,102216.38
2023-04-29T20:51:16.200Z,102220.88
2023-04-29T20:53:44.998Z,102205.66
2023-04-29T20:56:13.853Z,102216.84
2023-04-29T20:58:49.386Z,102212.63
2023-04-29T21:01:19.101Z,102227.41
2023-04-29T21:03:47.964Z,102226.63
2023-04-29T21:06:17.679Z,102218.91
2023-04-29T21:08:46.558Z,102227.69
2023-04-29T21:11:15.482Z,102208.22
2023-04-29T21:13:50.042Z,102228.22
2023-04-29T21:16:20.590Z,102231.00
2023-04-29T21:18:51.939Z,102225.56
2023-04-29T21:21:20.735Z,102228.06
2023-04-29T21:23:50.577Z,102232.41
2023-04-29T21:26:19.506Z,102236.91
2023-04-29T21:28:48.216Z,102224.34
2023-04-29T21:31:17.267Z,102224.41
2023-04-29T21:33:47.632Z,102232.91
2023-04-29T21:36:16.352Z,102232.66
2023-04-29T21:38:45.098Z,102241.53
2023-04-29T21:41:20.972Z,102247.66
2023-04-29T21:43:50.927Z,102244.38
2023-04-29T21:46:23.080Z,102247.22
2023-04-29T21:48:56.407Z,102245.44
2023-04-29T21:51:25.438Z,102241.84
2023-04-29T21:53:54.208Z,102241.06
2023-04-29T21:56:25.765Z,102172.94
2023-04-29T21:58:55.168Z,102254.34
2023-04-29T22:01:39.581Z,102249.13
2023-04-29T22:04:09.788Z,102260.53
2023-04-29T22:06:40.088Z,102250.22
2023-04-29T22:09:10.064Z,102248.59
2023-04-29T22:11:38.890Z,102252.38
2023-04-29T22:14:10.150Z,102244.88
2023-04-29T22:16:39.311Z,102255.28
2023-04-29T22:19:09.429Z,102255.13
2023-04-29T22:21:40.683Z,102252.50
2023-04-29T22:24:14.790Z,102246.44
2023-04-29T22:26:43.524Z,102250.78
2023-04-29T22:29:14.535Z,102255.13
2023-04-29T22:31:43.414Z,102264.56
2023-04-29T22:34:13.504Z,102260.09
2023-04-29T22:36:42.263Z,102260.22
2023-04-29T22:39:11.409Z,102261.91
2023-04-29T22:41:44.459Z,102267.47
2023-04-29T22:44:17.018Z,102263.97
2023-04-29T22:46:45.978Z,102266.59
2023-04-29T22:49:16.101Z,102268.31
2023-04-29T22:51:44.835Z,102270.03
2023-04-29T22:54:13.610Z,102267.47
2023-04-29T22:56:42.518Z,102260.63
2023-04-29T22:59:13.433Z,102253.69
2023-04-29T23:01:43.343Z,102256.34
2023-04-29T23:04:12.117Z,102252.91
2023-04-29T23:06:42.445Z,102252.25
2023-04-29T23:09:13.608Z,102257.50
2023-04-29T23:11:42.849Z,102257.84
2023-04-29T23:14:13.685Z,102259.56
2023-04-29T23:16:42.468Z,102263.03
2023-04-29T23:19:11.215Z,102257.88
2023-04-29T23:21:39.901Z,102258.16
2023-04-29T23:24:15.411Z,102265.88
2023-04-29T23:26:44.662Z,102265.78
2023-04-29T23:29:13.369Z,102268.34
2023-04-29T23:31:42.598Z,102284.88
2023-04-29T23:34:11.962Z,102265.84
2023-04-29T23:36:40.945Z,102280.41
2023-04-29T23:39:13.099Z,102277.81
2023-04-29T23:41:43.246Z,102279.59
2023-04-29T23:44:12.028Z,102274.41
2023-04-29T23:46:40.882Z,102282.28
2023-04-29T23:49:10.498Z,102286.63
2023-04-29T23:51:39.925Z,102281.28
2023-04-29T23:54:11.465Z,102286.56
2023-04-29T23:56:40.277Z,102280.63
2023-04-29T23:59:10.341Z,102275.47
